Time;durP1;ratioP1;P1;durP2;ratioP2;P2;SDS_P1;SDS_P2;PMS_P1;PMS_P2;Temp;Humidity;BMP_temperature;BMP_pressure;BME280_temperature;BME280_humidity;BME280_pressure;Samples;Min_cycle;Max_cycle;Signal;HPM_P1;HPM_P2
2023/04/04 00:01:46;;;;;;;;;3.00;1.00;;;;;21.93;32.34;102437.56;5078161;28;45163;-78
2023/04/04 00:04:11;;;;;;;;;2.50;2.00;;;;;21.93;31.85;102434.09;5078121;28;45217;-78
2023/04/04 00:06:37;;;;;;;;;4.33;2.33;;;;;21.93;32.49;102434.94;5059941;28;45290;-77
2023/04/04 00:09:02;;;;;;;;;2.33;1.33;;;;;21.93;32.00;102434.09;5078004;28;45306;-78
2023/04/04 00:11:27;;;;;;;;;1.33;1.00;;;;;21.94;32.58;102435.75;5077487;28;45368;-78
2023/04/04 00:13:54;;;;;;;;;1.67;1.67;;;;;21.93;32.65;102434.09;5078071;28;45339;-78
2023/04/04 00:16:19;;;;;;;;;2.00;1.33;;;;;21.93;32.17;102426.13;5077837;28;45414;-78
2023/04/04 00:18:44;;;;;;;;;3.00;2.00;;;;;21.93;32.13;102426.13;5077556;28;46034;-78
2023/04/04 00:21:10;;;;;;;;;1.00;1.00;;;;;21.93;32.11;102428.78;5077847;28;45348;-78
2023/04/04 00:23:35;;;;;;;;;2.00;2.00;;;;;21.92;31.92;102420.00;5077920;28;45389;-78
2023/04/04 00:26:01;;;;;;;;;3.33;1.00;;;;;21.92;31.82;102419.16;5077425;28;45408;-78
2023/04/04 00:28:26;;;;;;;;;2.00;2.00;;;;;21.81;31.84;102404.19;5077554;28;46345;-79
2023/04/04 00:30:51;;;;;;;;;2.00;2.00;;;;;21.91;32.28;102420.97;5077250;28;45414;-78
2023/04/04 00:33:17;;;;;;;;;1.50;1.50;;;;;21.91;32.18;102426.25;5077655;28;45478;-77
2023/04/04 00:35:42;;;;;;;;;2.00;2.00;;;;;21.91;32.34;102420.16;5077526;28;45427;-78
2023/04/04 00:38:07;;;;;;;;;2.67;1.00;;;;;21.90;32.44;102432.56;5077056;28;47360;-78
2023/04/04 00:40:44;;;;;;;;;2.00;1.00;;;;;21.89;32.36;102417.63;5077094;28;45409;-77
2023/04/04 00:43:10;;;;;;;;;1.75;1.75;;;;;21.89;32.32;102420.28;5077558;28;45351;-78
2023/04/04 00:45:35;;;;;;;;;1.33;1.33;;;;;21.89;32.07;102414.97;5077250;28;45495;-78
2023/04/04 00:48:01;;;;;;;;;1.00;1.00;;;;;21.89;32.07;102417.63;5077381;28;46280;-78
2023/04/04 00:50:27;;;;;;;;;1.00;1.00;;;;;21.88;31.88;102429.22;5077056;28;45179;-78
2023/04/04 00:52:52;;;;;;;;;2.67;2.67;;;;;21.88;31.74;102423.06;5077260;28;45339;-78
2023/04/04 00:55:18;;;;;;;;;2.50;1.50;;;;;21.88;32.23;102425.72;5076291;28;45482;-78
2023/04/04 00:57:44;;;;;;;;;3.00;1.67;;;;;21.87;32.06;102426.66;5077105;28;46252;-78
2023/04/04 01:00:11;;;;;;;;;1.67;1.67;;;;;21.79;32.10;102416.75;5077157;28;45442;-78
2023/04/04 01:02:37;;;;;;;;;1.00;1.00;;;;;21.78;32.10;102417.75;5077313;28;45411;-79
2023/04/04 01:05:03;;;;;;;;;0.00;0.00;;;;;21.85;31.66;102438.25;5077107;28;45471;-78
2023/04/04 01:07:28;;;;;;;;;1.67;1.67;;;;;21.85;31.96;102437.41;5077017;28;47306;-78
2023/04/04 01:09:56;;;;;;;;;1.67;1.67;;;;;21.85;31.89;102438.25;5076481;28;45425;-78
2023/04/04 01:12:22;;;;;;;;;2.00;2.00;;;;;21.85;32.04;102448.84;5077110;28;45403;-77
2023/04/04 01:14:47;;;;;;;;;1.00;1.00;;;;;21.84;31.63;102444.50;5076850;28;45367;-78
2023/04/04 01:17:13;;;;;;;;;2.00;1.33;;;;;21.85;31.91;102453.31;5076921;28;45312;-79
2023/04/04 01:19:52;;;;;;;;;3.00;1.75;;;;;21.84;31.82;102447.16;5076734;28;45307;-80
2023/04/04 01:22:19;;;;;;;;;1.00;1.00;;;;;21.74;31.28;102430.44;5076718;28;45398;-79
2023/04/04 01:24:47;;;;;;;;;1.00;1.00;;;;;21.83;31.56;102447.31;5076397;28;45407;-78
2023/04/04 01:27:13;;;;;;;;;2.00;2.00;;;;;21.83;31.30;102450.78;5076670;28;46134;-78
2023/04/04 01:29:38;;;;;;;;;2.00;2.00;;;;;21.84;31.29;102455.09;5076679;28;45417;-78
2023/04/04 01:32:28;;;;;;;;;1.67;1.33;;;;;21.84;31.20;102455.09;5076397;28;45846;-79
2023/04/04 01:35:24;;;;;;;;;1.33;0.67;;;;;21.84;31.31;102455.09;5062323;28;45471;-79
2023/04/04 01:38:01;;;;;;;;;1.00;1.00;;;;;21.87;31.52;102463.75;5075931;28;45366;-78
2023/04/04 01:40:34;;;;;;;;;2.50;1.00;;;;;21.85;31.48;102463.91;5075432;28;45227;-78
2023/04/04 01:43:00;;;;;;;;;1.00;1.00;;;;;21.82;32.06;102459.72;5076511;28;45483;-78
2023/04/04 01:45:26;;;;;;;;;1.00;1.00;;;;;21.84;31.54;102468.34;5076523;28;45534;-79
2023/04/04 01:47:51;;;;;;;;;1.00;1.00;;;;;21.71;31.75;102452.75;5076183;28;47308;-79
2023/04/04 01:50:17;;;;;;;;;2.00;1.00;;;;;21.84;31.53;102464.88;5075995;28;45498;-78
2023/04/04 01:52:42;;;;;;;;;2.00;2.00;;;;;21.82;31.67;102466.81;5078229;28;45332;-78
2023/04/04 01:55:08;;;;;;;;;1.00;1.00;;;;;21.83;31.43;102466.66;5079689;28;45483;-77
2023/04/04 01:57:33;;;;;;;;;1.00;1.00;;;;;21.84;31.36;102467.50;5079961;28;46872;-77
2023/04/04 01:59:59;;;;;;;;;1.00;1.00;;;;;21.84;31.40;102468.34;5076455;28;45293;-79
2023/04/04 02:02:25;;;;;;;;;2.50;0.75;;;;;21.84;31.48;102460.41;5076503;28;45375;-79
2023/04/04 02:04:51;;;;;;;;;1.00;1.00;;;;;21.83;31.62;102460.56;5076419;28;45447;-79
2023/04/04 02:07:17;;;;;;;;;0.00;0.00;;;;;21.83;31.44;102455.25;5074598;28;46424;-78
2023/04/04 02:09:42;;;;;;;;;0.67;0.00;;;;;21.81;31.78;102449.25;5075968;28;45354;-78
2023/04/04 02:12:07;;;;;;;;;2.00;2.00;;;;;21.81;31.94;102442.13;5076026;28;45377;-78
2023/04/04 02:14:34;;;;;;;;;1.00;1.00;;;;;21.82;31.26;102442.97;5076304;28;45361;-78
2023/04/04 02:16:59;;;;;;;;;1.00;1.00;;;;;21.70;31.61;102432.50;5078167;28;46996;-77
2023/04/04 02:19:25;;;;;;;;;1.25;1.00;;;;;21.81;31.82;102442.13;5080551;28;45277;-77
2023/04/04 02:21:50;;;;;;;;;2.25;1.00;;;;;21.81;31.53;102431.53;5078637;28;45313;-78
2023/04/04 02:24:16;;;;;;;;;1.00;0.75;;;;;21.79;31.96;102430.00;5075954;28;45490;-79
2023/04/04 02:26:41;;;;;;;;;1.00;1.00;;;;;21.80;31.99;102431.69;5075901;28;46210;-76
2023/04/04 02:29:06;;;;;;;;;1.00;1.00;;;;;21.77;31.70;102418.72;5075897;28;45267;-78
2023/04/04 02:31:32;;;;;;;;;0.25;0.25;;;;;21.81;31.90;102430.69;5075600;27;45313;-78
2023/04/04 02:33:58;;;;;;;;;1.50;0.75;;;;;21.79;31.35;102428.19;5075920;28;45294;-78
2023/04/04 02:36:23;;;;;;;;;0.00;0.00;;;;;21.63;31.43;102400.47;5075229;28;46153;-78
2023/04/04 02:38:48;;;;;;;;;0.33;0.33;;;;;21.73;31.43;102415.50;5075679;28;45483;-78
2023/04/04 02:41:14;;;;;;;;;1.00;1.00;;;;;21.77;31.37;102419.56;5075921;28;45432;-78
2023/04/04 02:43:39;;;;;;;;;1.00;1.00;;;;;21.76;31.65;102423.16;5075740;28;45538;-78
2023/04/04 02:46:04;;;;;;;;;1.00;1.00;;;;;21.78;31.72;102423.06;5075652;28;46244;-78
2023/04/04 02:48:30;;;;;;;;;1.25;1.25;;;;;21.70;31.14;102413.97;5057712;28;45480;-78
2023/04/04 02:50:55;;;;;;;;;1.00;1.00;;;;;21.69;31.23;102404.38;5075285;28;45532;-78
2023/04/04 02:53:21;;;;;;;;;2.00;1.67;;;;;21.76;31.70;102420.53;5075682;28;45421;-78
2023/04/04 02:55:46;;;;;;;;;1.00;1.00;;;;;21.75;31.03;102421.53;5075425;28;45360;-78
2023/04/04 02:58:11;;;;;;;;;2.50;1.50;;;;;21.77;31.57;102429.31;5075442;28;45347;-79
2023/04/04 03:00:37;;;;;;;;;0.00;0.00;;;;;21.69;31.15;102414.97;5075593;28;45522;-79
2023/04/04 03:03:02;;;;;;;;;0.67;0.33;;;;;21.77;31.03;102421.38;5075099;28;45356;-78
2023/04/04 03:05:28;;;;;;;;;0.67;0.67;;;;;21.77;30.98;102418.72;5075013;28;47123;-78
2023/04/04 03:07:58;;;;;;;;;0.67;0.00;;;;;21.71;31.73;102417.47;5075541;28;45214;-79
2023/04/04 03:10:31;;;;;;;;;1.00;1.00;;;;;21.78;31.57;102425.69;5075389;28;45545;-79
2023/04/04 03:12:57;;;;;;;;;0.00;0.00;;;;;21.78;31.63;102421.22;5075355;28;45282;-79
2023/04/04 03:15:25;;;;;;;;;1.67;1.00;;;;;21.78;31.05;102421.22;5075037;28;46234;-78
2023/04/04 03:17:51;;;;;;;;;1.00;1.00;;;;;21.78;31.65;102428.34;5076759;28;45666;-78
2023/04/04 03:20:17;;;;;;;;;1.67;0.33;;;;;21.78;31.16;102428.34;5078393;28;45531;-78
2023/04/04 03:22:42;;;;;;;;;1.00;1.00;;;;;21.76;31.13;102423.16;5078679;28;45530;-79
2023/04/04 03:25:08;;;;;;;;;0.50;0.50;;;;;21.78;31.40;102436.31;5078607;28;47215;-78
2023/04/04 03:27:34;;;;;;;;;1.00;1.00;;;;;21.76;31.54;102441.72;5078588;28;45283;-78
2023/04/04 03:30:00;;;;;;;;;1.00;1.00;;;;;21.76;31.50;102444.38;5078626;28;45331;-79
2023/04/04 03:32:26;;;;;;;;;0.50;0.50;;;;;21.75;31.15;102442.72;5078589;28;45320;-79
2023/04/04 03:34:51;;;;;;;;;0.33;0.33;;;;;21.74;31.38;102448.97;5078168;28;45433;-79
2023/04/04 03:37:17;;;;;;;;;1.75;0.75;;;;;21.68;31.20;102446.88;5078346;28;45352;-79
2023/04/04 03:39:43;;;;;;;;;2.00;1.75;;;;;21.74;31.26;102454.28;5078582;28;45494;-79
2023/04/04 03:42:08;;;;;;;;;0.67;0.67;;;;;21.74;31.53;102452.47;5078248;28;45348;-79
2023/04/04 03:44:35;;;;;;;;;0.50;0.50;;;;;21.76;31.44;102451.47;5077443;28;45581;-79
2023/04/04 03:47:00;;;;;;;;;1.00;1.00;;;;;21.75;31.57;102453.31;5078375;28;45358;-78
2023/04/04 03:49:26;;;;;;;;;0.00;0.00;;;;;21.74;31.51;102449.81;5078041;28;45321;-78
2023/04/04 03:51:51;;;;;;;;;0.25;0.25;;;;;21.75;31.66;102453.31;5078168;28;45312;-79
2023/04/04 03:54:16;;;;;;;;;0.67;0.67;;;;;21.74;31.49;102451.63;5077885;28;45324;-79
2023/04/04 03:56:42;;;;;;;;;0.25;0.25;;;;;21.73;31.14;102453.44;5078192;28;45304;-78
2023/04/04 03:59:08;;;;;;;;;1.00;0.75;;;;;21.65;31.25;102440.03;5078112;28;45368;-79
2023/04/04 04:01:33;;;;;;;;;0.00;0.00;;;;;21.63;31.20;102442.84;5078090;28;45566;-78
2023/04/04 04:04:00;;;;;;;;;0.75;0.75;;;;;21.72;31.27;102454.44;5077365;28;46074;-79
2023/04/04 04:06:26;;;;;;;;;2.00;2.00;;;;;21.71;31.11;102460.69;5077974;28;45282;-78
2023/04/04 04:08:52;;;;;;;;;0.75;0.75;;;;;21.71;31.58;102460.69;5077890;28;45244;-78
2023/04/04 04:11:17;;;;;;;;;0.75;0.75;;;;;21.71;31.29;102463.34;5077931;28;45215;-78
2023/04/04 04:13:42;;;;;;;;;0.50;0.50;;;;;21.66;30.98;102454.97;5077728;28;45281;-78
2023/04/04 04:16:08;;;;;;;;;0.75;0.75;;;;;21.70;30.97;102461.66;5077816;28;45328;-77
2023/04/04 04:18:33;;;;;;;;;0.75;0.75;;;;;21.67;31.11;102453.16;5077685;28;45727;-78
2023/04/04 04:21:01;;;;;;;;;2.00;1.00;;;;;21.68;30.79;102458.31;5077716;28;45428;-79
2023/04/04 04:23:27;;;;;;;;;1.00;1.00;;;;;21.65;31.38;102447.16;5077567;28;47167;-78
2023/04/04 04:25:52;;;;;;;;;1.00;1.00;;;;;21.69;31.20;102452.03;5077541;28;45317;-78
2023/04/04 04:28:17;;;;;;;;;1.00;1.00;;;;;21.69;30.98;102456.50;5077624;28;45334;-77
2023/04/04 04:30:43;;;;;;;;;0.33;0.33;;;;;21.68;31.37;102458.31;5076934;28;45471;-79
2023/04/04 04:33:08;;;;;;;;;0.67;0.00;;;;;21.68;30.80;102463.59;5076842;28;46037;-79
2023/04/04 04:35:40;;;;;;;;;0.75;0.75;;;;;21.68;31.01;102458.31;5077607;28;45506;-78
2023/04/04 04:38:06;;;;;;;;;1.00;0.67;;;;;21.67;31.44;102453.16;5077433;28;45489;-83
2023/04/04 04:40:34;;;;;;;;;0.50;0.50;;;;;21.64;31.18;102454.28;5077504;28;45323;-75
2023/04/04 04:42:59;;;;;;;;;0.50;0.00;;;;;21.66;31.18;102460.25;5040387;27;45588;-77
2023/04/04 04:45:25;;;;;;;;;0.75;0.75;;;;;21.71;31.31;102462.50;5076359;28;45441;-78
2023/04/04 04:47:50;;;;;;;;;0.00;0.00;;;;;21.72;31.34;102470.31;5076065;28;45559;-79
2023/04/04 04:50:16;;;;;;;;;0.50;0.50;;;;;21.72;31.82;102465.03;5077082;28;45209;-81
2023/04/04 04:52:42;;;;;;;;;2.67;1.67;;;;;21.74;31.97;102470.16;5075897;28;46963;-80
2023/04/04 04:55:07;;;;;;;;;0.75;0.75;;;;;21.76;31.62;102470.03;5073774;28;45447;-75
2023/04/04 04:57:33;;;;;;;;;0.33;0.33;;;;;21.76;31.72;102470.03;5085866;27;45260;-83
2023/04/04 05:00:00;;;;;;;;;0.25;0.25;;;;;21.78;32.03;102478.69;5077351;27;45536;-78
2023/04/04 05:02:26;;;;;;;;;0.67;0.67;;;;;21.79;32.04;102477.69;5074387;27;47468;-79
2023/04/04 05:04:51;;;;;;;;;1.00;1.00;;;;;21.80;32.04;102482.03;5076133;28;45463;-79
2023/04/04 05:07:17;;;;;;;;;0.00;0.00;;;;;21.72;32.38;102458.88;5076286;28;45390;-79
2023/04/04 05:13:31;;;;;;;;;1.67;1.00;;;;;21.80;32.24;102487.34;5076176;28;45498;-79
2023/04/04 05:15:57;;;;;;;;;0.67;0.00;;;;;21.79;32.17;102491.78;5075509;28;45285;-79
2023/04/04 05:18:22;;;;;;;;;0.67;0.67;;;;;21.79;32.15;102491.78;5076983;28;45350;-79
2023/04/04 05:20:54;;;;;;;;;0.67;0.67;;;;;21.72;32.40;102475.63;5076725;28;45354;-79
2023/04/04 05:23:20;;;;;;;;;0.00;0.00;;;;;21.73;32.06;102485.22;5077034;28;46082;-80
2023/04/04 05:25:48;;;;;;;;;1.67;0.00;;;;;21.74;32.57;102483.41;5076616;28;45280;-79
2023/04/04 05:28:14;;;;;;;;;0.00;0.00;;;;;21.78;32.60;102489.28;5076852;28;45483;-79
2023/04/04 05:30:40;;;;;;;;;0.67;0.67;;;;;21.77;32.43;102499.03;5076056;28;47972;-79
2023/04/04 05:33:05;;;;;;;;;0.67;0.67;;;;;21.77;32.20;102501.69;5076421;28;45398;-79
2023/04/04 05:35:30;;;;;;;;;1.50;1.50;;;;;21.77;32.28;102500.84;5076386;28;45528;-79
2023/04/04 05:37:56;;;;;;;;;1.00;1.00;;;;;21.77;32.10;102496.38;5076367;28;46848;-79
2023/04/04 05:40:21;;;;;;;;;2.33;2.33;;;;;21.77;32.61;102500.84;5076216;28;45885;-79
2023/04/04 05:42:56;;;;;;;;;1.00;1.00;;;;;21.77;32.19;102500.84;5076180;28;50885;-80
2023/04/04 05:45:22;;;;;;;;;0.33;0.33;;;;;21.74;32.63;102502.81;5075832;28;45378;-78
2023/04/04 05:47:47;;;;;;;;;0.00;0.00;;;;;21.76;32.48;102496.50;5076306;28;45386;-79
2023/04/04 05:50:13;;;;;;;;;0.00;0.00;;;;;21.74;32.26;102496.66;5076168;28;45336;-78
2023/04/04 05:52:38;;;;;;;;;1.00;1.00;;;;;21.77;32.09;102500.84;5076227;28;45983;-78
2023/04/04 05:55:04;;;;;;;;;1.00;1.00;;;;;21.77;31.93;102512.28;5075983;28;47892;-79
2023/04/04 05:57:29;;;;;;;;;2.50;1.25;;;;;21.77;32.23;102506.16;5076194;28;45283;-80
2023/04/04 05:59:55;;;;;;;;;0.75;0.50;;;;;21.78;32.00;102516.59;5075867;28;45251;-78
2023/04/04 06:02:21;;;;;;;;;1.00;1.00;;;;;21.71;32.03;102497.78;5076022;28;46116;-79
2023/04/04 06:04:46;;;;;;;;;2.00;0.25;;;;;21.79;32.36;102514.78;5076076;28;45238;-79
2023/04/04 06:07:11;;;;;;;;;1.00;1.00;;;;;21.80;32.16;102513.81;5076211;28;45413;-79
2023/04/04 06:09:37;;;;;;;;;3.00;2.00;;;;;21.81;32.08;102510.19;5076163;28;45288;-79
2023/04/04 06:12:05;;;;;;;;;0.00;0.00;;;;;21.76;31.97;102513.25;5075862;28;46090;-80
2023/04/04 06:14:30;;;;;;;;;0.33;0.33;;;;;21.82;31.82;102522.47;5075764;28;45514;-83
2023/04/04 06:16:57;;;;;;;;;1.00;0.75;;;;;21.84;32.35;102531.94;5076180;28;45434;-80
2023/04/04 06:19:22;;;;;;;;;1.00;1.00;;;;;21.85;32.51;102535.44;5076005;28;45574;-80
2023/04/04 06:21:47;;;;;;;;;1.00;1.00;;;;;21.83;32.30;102540.88;5075651;28;46182;-79
2023/04/04 06:24:12;;;;;;;;;2.00;2.00;;;;;21.87;32.41;102541.47;5075801;28;45343;-80
2023/04/04 06:26:38;;;;;;;;;2.00;1.00;;;;;21.85;32.11;102538.94;5076021;28;45410;-83
2023/04/04 06:29:04;;;;;;;;;0.00;0.00;;;;;21.88;31.96;102556.41;5075696;28;46154;-82
2023/04/04 06:31:29;;;;;;;;;2.00;2.00;;;;;21.84;31.83;102550.50;5075375;28;46196;-75
2023/04/04 06:33:56;;;;;;;;;0.67;0.67;;;;;21.89;32.48;102558.06;5075541;28;45362;-73
2023/04/04 06:36:21;;;;;;;;;2.00;1.00;;;;;21.90;32.35;102549.16;5075720;28;45533;-73
2023/04/04 06:38:46;;;;;;;;;0.50;0.50;;;;;21.85;32.34;102540.75;5075790;28;45317;-79
2023/04/04 06:41:12;;;;;;;;;1.25;1.25;;;;;22.06;32.01;102553.06;5057552;28;45976;-76
2023/04/04 06:43:37;;;;;;;;;3.00;1.75;;;;;22.26;32.25;102539.81;5075001;28;45379;-76
2023/04/04 06:46:02;;;;;;;;;3.00;1.50;;;;;22.49;31.75;102545.66;5075811;28;45361;-80
2023/04/04 06:48:28;;;;;;;;;1.00;1.00;;;;;22.70;32.09;102544.66;5075716;28;45472;-74
2023/04/04 06:50:53;;;;;;;;;1.67;1.67;;;;;22.88;31.75;102548.38;5057143;28;46130;-76
2023/04/04 06:53:19;;;;;;;;;1.00;1.00;;;;;22.97;31.74;102544.88;5077712;27;45445;-76
2023/04/04 06:55:44;;;;;;;;;4.25;1.00;;;;;23.02;31.45;102550.59;5079131;28;45367;-76
2023/04/04 06:58:10;;;;;;;;;1.00;1.00;;;;;23.03;31.37;102548.75;5078626;28;45529;-76
2023/04/04 07:00:35;;;;;;;;;3.00;1.00;;;;;23.05;31.01;102544.13;5078876;28;46267;-75
2023/04/04 07:03:01;;;;;;;;;0.67;0.67;;;;;23.02;31.01;102539.97;5078798;28;45371;-77
2023/04/04 07:05:26;;;;;;;;;1.67;1.00;;;;;23.08;31.57;102549.16;5061018;28;45329;-77
2023/04/04 07:07:55;;;;;;;;;1.00;0.67;;;;;23.06;31.25;102551.09;5079069;28;45320;-76
2023/04/04 07:10:22;;;;;;;;;1.33;1.33;;;;;23.06;31.59;102551.09;5078563;28;46132;-77
2023/04/04 07:12:47;;;;;;;;;3.67;2.00;;;;;22.97;31.37;102542.22;5078235;28;45258;-76
2023/04/04 07:15:13;;;;;;;;;1.67;1.67;;;;;23.04;31.29;102558.38;5078947;28;45317;-76
2023/04/04 07:17:39;;;;;;;;;2.00;2.00;;;;;23.04;31.29;102553.91;5078938;28;45449;-77
2023/04/04 07:20:06;;;;;;;;;1.00;1.00;;;;;23.05;31.21;102560.06;5078498;28;47056;-76
2023/04/04 07:22:32;;;;;;;;;2.00;2.00;;;;;22.96;31.15;102546.69;5078459;28;45370;-76
2023/04/04 07:24:57;;;;;;;;;2.00;1.00;;;;;23.02;31.53;102561.19;5078379;28;45630;-76
2023/04/04 07:27:22;;;;;;;;;1.00;1.00;;;;;23.07;31.35;102564.25;5078750;28;45447;-75
2023/04/04 07:29:48;;;;;;;;;3.00;1.33;;;;;23.06;31.19;102551.94;5078302;28;48509;-75
2023/04/04 07:32:13;;;;;;;;;1.00;1.00;;;;;23.07;31.48;102552.78;5077812;28;51716;-76
2023/04/04 07:34:38;;;;;;;;;3.00;2.00;;;;;23.07;31.59;102553.63;5078433;28;45448;-77
2023/04/04 07:37:04;;;;;;;;;1.00;1.00;;;;;23.08;31.43;102554.47;5078401;28;45253;-76
2023/04/04 07:39:30;;;;;;;;;1.33;1.00;;;;;23.09;31.12;102564.09;5077852;28;46021;-76
2023/04/04 07:41:55;;;;;;;;;2.00;1.00;;;;;23.10;30.93;102557.81;5078310;28;45221;-76
2023/04/04 07:44:20;;;;;;;;;0.67;0.67;;;;;23.10;30.95;102555.16;5077976;28;45639;-76
2023/04/04 07:46:46;;;;;;;;;1.00;1.00;;;;;23.06;30.99;102551.09;5078297;28;45788;-76
2023/04/04 07:49:11;;;;;;;;;1.00;1.00;;;;;23.13;31.57;102556.69;5078175;28;45338;-75
2023/04/04 07:51:38;;;;;;;;;1.67;1.33;;;;;23.12;31.56;102561.16;5077950;28;45340;-76
2023/04/04 07:54:04;;;;;;;;;1.00;1.00;;;;;23.13;31.30;102564.66;5077813;28;45384;-73
2023/04/04 07:56:29;;;;;;;;;1.00;1.00;;;;;23.13;30.95;102562.84;5078050;28;45377;-76
2023/04/04 07:58:55;;;;;;;;;1.67;1.00;;;;;23.13;31.21;102557.53;5059717;28;47171;-76
2023/04/04 08:01:20;;;;;;;;;1.00;1.00;;;;;23.07;31.29;102553.63;5077863;28;45302;-75
2023/04/04 08:03:46;;;;;;;;;1.00;1.00;;;;;23.13;31.11;102564.66;5076869;28;45336;-77
2023/04/04 08:06:11;;;;;;;;;1.00;1.00;;;;;23.13;31.25;102565.50;5077899;28;45277;-76
2023/04/04 08:08:37;;;;;;;;;1.00;1.00;;;;;23.13;30.93;102568.16;5077518;28;46966;-76
2023/04/04 08:11:02;;;;;;;;;2.67;2.00;;;;;23.13;30.90;102567.31;5077681;28;45517;-76
2023/04/04 08:13:27;;;;;;;;;1.33;1.33;;;;;23.14;31.22;102568.97;5078031;28;45327;-75
2023/04/04 08:15:53;;;;;;;;;2.00;0.00;;;;;23.14;31.38;102566.31;5077966;28;45238;-76
2023/04/04 08:18:18;;;;;;;;;0.67;0.67;;;;;23.15;31.10;102566.19;5077571;28;50908;-76
2023/04/04 08:20:44;;;;;;;;;1.00;1.00;;;;;23.16;30.95;102567.84;5077536;28;45281;-76
2023/04/04 08:23:11;;;;;;;;;1.00;1.00;;;;;23.16;31.53;102570.50;5077552;28;45210;-76
2023/04/04 08:25:38;;;;;;;;;1.00;1.00;;;;;23.17;30.86;102563.38;5077692;28;45396;-75
2023/04/04 08:28:04;;;;;;;;;0.67;0.67;;;;;23.18;31.28;102573.03;5077387;28;46321;-75
2023/04/04 08:30:30;;;;;;;;;2.00;0.67;;;;;23.18;31.34;102568.56;5077432;28;45419;-77
2023/04/04 08:32:56;;;;;;;;;1.00;1.00;;;;;23.20;31.44;102570.22;5077280;27;45531;-75
2023/04/04 08:35:21;;;;;;;;;1.00;1.00;;;;;23.10;31.12;102557.81;5077544;28;45419;-76
2023/04/04 08:37:47;;;;;;;;;1.00;0.00;;;;;23.13;30.95;102559.34;5077102;28;45496;-76
2023/04/04 08:40:13;;;;;;;;;1.00;1.00;;;;;23.20;31.37;102576.34;5077275;28;45446;-75
2023/04/04 08:42:40;;;;;;;;;1.33;1.33;;;;;23.20;31.26;102573.69;5077604;28;45490;-76
2023/04/04 08:45:08;;;;;;;;;1.00;1.00;;;;;23.21;31.08;102570.06;5077073;28;45496;-76
2023/04/04 08:47:36;;;;;;;;;0.33;0.33;;;;;23.21;31.43;102577.19;5077210;28;46279;-75
2023/04/04 08:50:06;;;;;;;;;1.00;1.00;;;;;23.22;31.14;102571.72;5076890;28;45277;-76
2023/04/04 08:52:33;;;;;;;;;1.00;1.00;;;;;23.22;31.01;102574.38;5077065;28;45229;-75
2023/04/04 08:54:59;;;;;;;;;1.33;1.33;;;;;23.23;30.93;102578.72;5077388;28;45695;-76
2023/04/04 08:57:25;;;;;;;;;1.00;1.00;;;;;23.14;31.49;102567.16;5076917;28;47558;-76
2023/04/04 08:59:50;;;;;;;;;3.67;1.00;;;;;23.24;31.51;102580.38;5077098;28;45358;-76
2023/04/04 09:02:45;;;;;;;;;1.33;1.00;;;;;23.25;31.11;102591.84;5058900;28;45323;-75
2023/04/04 09:05:12;;;;;;;;;0.00;0.00;;;;;23.21;31.19;102579.84;5073977;28;45504;-75
2023/04/04 09:07:38;;;;;;;;;0.67;0.67;;;;;23.24;31.39;102571.56;5076583;28;46391;-75
2023/04/04 09:10:03;;;;;;;;;1.33;1.33;;;;;23.24;31.34;102569.75;5076651;28;45395;-76
2023/04/04 09:12:31;;;;;;;;;0.67;0.67;;;;;23.13;31.17;102552.22;5077224;28;45272;-76
2023/04/04 09:14:59;;;;;;;;;1.00;1.00;;;;;23.17;31.55;102544.78;5076378;28;45217;-77
2023/04/04 09:17:24;;;;;;;;;0.33;0.33;;;;;23.24;31.59;102550.34;5076734;28;47033;-76
2023/04/04 09:19:51;;;;;;;;;2.00;1.00;;;;;23.23;31.37;102554.00;5076532;28;45423;-76
2023/04/04 09:22:16;;;;;;;;;1.00;1.00;;;;;23.22;31.30;102547.00;5076492;28;45438;-76
2023/04/04 09:24:42;;;;;;;;;1.00;1.00;;;;;23.23;31.40;102548.69;5076649;28;45410;-77
2023/04/04 09:27:10;;;;;;;;;0.00;0.00;;;;;23.22;31.05;102539.03;5076411;28;47251;-76
2023/04/04 09:29:39;;;;;;;;;0.00;0.00;;;;;23.22;31.06;102545.19;5075787;28;45304;-76
2023/04/04 09:32:15;;;;;;;;;0.00;0.00;;;;;23.21;31.23;102540.88;5076564;28;45348;-76
2023/04/04 09:34:42;;;;;;;;;1.00;1.00;;;;;23.20;31.66;102539.19;5076465;28;45360;-76
2023/04/04 09:37:08;;;;;;;;;3.00;1.00;;;;;23.20;31.58;102533.88;5075787;28;47049;-76
2023/04/04 09:39:34;;;;;;;;;2.00;1.00;;;;;23.16;31.14;102522.69;5076369;28;45352;-75
2023/04/04 09:42:00;;;;;;;;;0.00;0.00;;;;;23.20;31.06;102538.34;5076589;28;45591;-76
2023/04/04 09:44:28;;;;;;;;;0.00;0.00;;;;;23.18;31.16;102539.34;5057815;28;45618;-75
2023/04/04 09:47:05;;;;;;;;;0.67;0.67;;;;;23.20;31.71;102538.34;5076290;28;45444;-75
2023/04/04 09:49:31;;;;;;;;;2.00;1.00;;;;;23.18;31.64;102534.03;5076110;28;45519;-76
2023/04/04 09:51:56;;;;;;;;;0.67;0.67;;;;;23.18;31.60;102536.69;5077600;28;45448;-77
2023/04/04 09:54:23;;;;;;;;;1.00;1.00;;;;;23.15;31.41;102544.09;5076401;28;45434;-76
2023/04/04 09:56:49;;;;;;;;;2.00;1.00;;;;;23.18;31.51;102552.63;5076317;28;45321;-76
2023/04/04 09:59:17;;;;;;;;;1.00;1.00;;;;;23.13;31.18;102530.97;5076054;28;45303;-76
2023/04/04 10:01:44;;;;;;;;;2.00;0.67;;;;;23.15;31.32;102550.25;5076244;28;45402;-76
2023/04/04 10:04:10;;;;;;;;;1.00;1.00;;;;;23.14;31.21;102547.72;5076036;28;45322;-76
2023/04/04 10:06:36;;;;;;;;;1.00;1.00;;;;;23.13;31.38;102544.25;5075500;28;46820;-76
2023/04/04 10:09:02;;;;;;;;;2.33;2.00;;;;;23.11;31.55;102543.53;5075851;28;45322;-76
2023/04/04 10:11:30;;;;;;;;;2.00;2.00;;;;;23.11;31.20;102553.34;5075496;28;45381;-76
2023/04/04 10:13:56;;;;;;;;;1.00;1.00;;;;;22.98;31.48;102521.81;5075977;28;45281;-76
2023/04/04 10:16:24;;;;;;;;;0.33;0.33;;;;;23.09;31.39;102542.00;5075846;28;46204;-76
2023/04/04 10:18:50;;;;;;;;;1.00;1.00;;;;;23.07;31.22;102540.34;5075992;28;45417;-76
2023/04/04 10:21:16;;;;;;;;;3.67;1.00;;;;;23.04;31.13;102538.00;5075373;28;45419;-76
2023/04/04 10:23:44;;;;;;;;;1.33;0.00;;;;;23.04;31.44;102535.34;5075987;28;45423;-76
2023/04/04 10:26:09;;;;;;;;;0.67;0.00;;;;;23.05;31.49;102541.50;5075623;28;46993;-76
2023/04/04 10:28:35;;;;;;;;;1.00;1.00;;;;;23.04;31.39;102538.00;5078544;28;45360;-75
2023/04/04 10:31:17;;;;;;;;;1.00;1.00;;;;;23.02;31.49;102545.28;5061258;28;45267;-76
2023/04/04 10:33:59;;;;;;;;;1.00;1.00;;;;;23.01;30.79;102534.78;5079074;28;45403;-76
2023/04/04 10:36:30;;;;;;;;;1.00;1.00;;;;;23.01;31.60;102537.44;5079017;27;46188;-76
2023/04/04 10:39:06;;;;;;;;;0.00;0.00;;;;;23.00;31.46;102546.41;5061184;28;45248;-76
2023/04/04 10:41:32;;;;;;;;;0.00;0.00;;;;;22.99;31.36;102537.59;5079192;28;45306;-74
2023/04/04 10:44:07;;;;;;;;;1.00;1.00;;;;;22.99;31.58;102524.31;5079271;28;45313;-76
2023/04/04 10:46:35;;;;;;;;;1.00;1.00;;;;;22.98;31.25;102529.78;5078907;28;46287;-74
2023/04/04 10:49:01;;;;;;;;;1.00;1.00;;;;;22.98;31.54;102527.13;5078826;28;45385;-76
2023/04/04 10:51:30;;;;;;;;;1.00;1.00;;;;;22.94;31.06;102524.75;5079125;28;45277;-76
2023/04/04 10:53:57;;;;;;;;;0.67;0.00;;;;;22.98;31.22;102525.28;5079184;28;45312;-75
2023/04/04 10:56:22;;;;;;;;;1.00;1.00;;;;;22.98;30.93;102519.16;5078934;28;46282;-77
2023/04/04 10:58:48;;;;;;;;;1.00;1.00;;;;;22.97;31.35;102518.31;5078820;28;45332;-76
2023/04/04 11:01:19;;;;;;;;;1.00;1.00;;;;;22.96;31.47;102514.00;5079121;28;45269;-76
2023/04/04 11:04:17;;;;;;;;;1.00;1.00;;;;;22.94;31.19;102505.34;5078803;28;45490;-76
2023/04/04 11:07:16;;;;;;;;;0.33;0.33;;;;;22.94;31.46;102502.69;5071371;28;46093;-77
2023/04/04 11:09:53;;;;;;;;;3.00;1.00;;;;;22.93;31.19;102501.00;5078698;28;45435;-77
2023/04/04 11:12:26;;;;;;;;;1.00;0.00;;;;;22.92;31.55;102505.50;5078742;28;45432;-76
2023/04/04 11:14:55;;;;;;;;;1.00;0.00;;;;;22.91;31.14;102498.50;5078835;28;45397;-75
2023/04/04 11:17:39;;;;;;;;;1.67;1.00;;;;;22.91;31.22;102500.31;5078279;28;45502;-76
2023/04/04 11:20:07;;;;;;;;;0.00;0.00;;;;;22.89;31.43;102491.66;5078550;28;45302;-76
2023/04/04 11:22:35;;;;;;;;;3.00;1.00;;;;;22.87;31.61;102486.53;5078846;28;45310;-74
2023/04/04 11:25:23;;;;;;;;;0.00;0.00;;;;;22.85;31.66;102489.31;5078685;28;45361;-75
2023/04/04 11:27:51;;;;;;;;;1.00;1.00;;;;;22.84;31.60;102490.31;5078483;28;46285;-76